Time;durP1;ratioP1;P1;durP2;ratioP2;P2;SDS_P1;SDS_P2;PMS_P1;PMS_P2;Temp;Humidity;BMP_temperature;BMP_pressure;BME280_temperature;BME280_humidity;BME280_pressure;Samples;Min_cycle;Max_cycle;Signal;HPM_P1;HPM_P2
2023/04/24 18:00:16;;;;;;;0.33;0.33;;;;;;;;;;4983371;28;20195;-71
2023/04/24 18:02:43;;;;;;;0.20;0.20;;;;;;;;;;4966620;28;20312;-72
2023/04/24 18:05:09;;;;;;;0.77;0.47;;;;;;;;;;4964895;28;20235;-71
2023/04/24 18:07:36;;;;;;;0.43;0.40;;;;;;;;;;4939860;28;20246;-71
2023/04/24 18:10:02;;;;;;;0.70;0.43;;;;;;;;;;4919400;28;20230;-72
2023/04/24 18:12:28;;;;;;;0.70;0.50;;;;;;;;;;4944343;28;20209;-72
2023/04/24 18:14:55;;;;;;;0.40;0.33;;;;;;;;;;4942770;28;20607;-72
2023/04/24 18:17:21;;;;;;;0.40;0.30;;;;;;;;;;4947166;28;20210;-72
2023/04/24 18:19:49;;;;;;;0.30;0.30;;;;;;;;;;4945869;28;20297;-72
2023/04/24 18:22:15;;;;;;;1.03;0.30;;;;;;;;;;4945119;28;20194;-72
2023/04/24 18:24:41;;;;;;;0.50;0.50;;;;;;;;;;4948639;28;20305;-72
2023/04/24 18:27:08;;;;;;;0.60;0.30;;;;;;;;;;4947973;28;20707;-72
2023/04/24 18:29:34;;;;;;;0.50;0.50;;;;;;;;;;4926046;28;20225;-72
2023/04/24 18:32:01;;;;;;;0.40;0.40;;;;;;;;;;4948325;28;20245;-72
2023/04/24 18:34:27;;;;;;;0.47;0.47;;;;;;;;;;4952512;28;20248;-72
2023/04/24 18:36:54;;;;;;;0.50;0.40;;;;;;;;;;4950145;28;20273;-72
2023/04/24 18:39:21;;;;;;;0.40;0.40;;;;;;;;;;4946803;28;20284;-72
2023/04/24 18:41:47;;;;;;;0.50;0.50;;;;;;;;;;4943913;28;20213;-72
2023/04/24 18:44:14;;;;;;;0.50;0.50;;;;;;;;;;4942939;28;20254;-72
2023/04/24 18:46:40;;;;;;;0.40;0.40;;;;;;;;;;4940765;28;20282;-72
2023/04/24 18:49:06;;;;;;;1.37;0.40;;;;;;;;;;4939969;28;20248;-72
2023/04/24 18:51:32;;;;;;;0.57;0.40;;;;;;;;;;4944341;28;20209;-72
2023/04/24 18:54:00;;;;;;;0.40;0.40;;;;;;;;;;4945234;28;20230;-72
2023/04/24 18:56:26;;;;;;;0.30;0.30;;;;;;;;;;4950152;28;20576;-72
2023/04/24 18:58:54;;;;;;;0.47;0.40;;;;;;;;;;4946216;28;20207;-72
2023/04/24 19:01:21;;;;;;;0.50;0.50;;;;;;;;;;4937708;28;20684;-72
2023/04/24 19:03:47;;;;;;;0.33;0.33;;;;;;;;;;4958419;28;20302;-72
2023/04/24 19:06:14;;;;;;;0.50;0.50;;;;;;;;;;4964280;28;20208;-72
2023/04/24 19:08:42;;;;;;;0.50;0.50;;;;;;;;;;4964786;28;20229;-72
2023/04/24 19:11:09;;;;;;;0.50;0.50;;;;;;;;;;4963702;28;20294;-72
2023/04/24 19:13:36;;;;;;;0.33;0.33;;;;;;;;;;4960155;28;20299;-72
2023/04/24 19:16:02;;;;;;;0.70;0.50;;;;;;;;;;4963621;28;20221;-72
2023/04/24 19:18:28;;;;;;;0.60;0.60;;;;;;;;;;4963625;28;20207;-72
2023/04/24 19:20:54;;;;;;;0.40;0.40;;;;;;;;;;4961904;28;20200;-72
2023/04/24 19:23:20;;;;;;;1.30;0.40;;;;;;;;;;4966337;28;20581;-72
2023/04/24 19:25:47;;;;;;;0.50;0.50;;;;;;;;;;4961987;28;20226;-72
2023/04/24 19:28:15;;;;;;;0.47;0.30;;;;;;;;;;4967575;28;20207;-72
2023/04/24 19:30:41;;;;;;;0.33;0.33;;;;;;;;;;4965231;28;20234;-72
2023/04/24 19:33:07;;;;;;;0.40;0.40;;;;;;;;;;4960510;28;20213;-72
2023/04/24 19:35:34;;;;;;;0.60;0.60;;;;;;;;;;4966171;28;20216;-72
2023/04/24 19:38:01;;;;;;;1.07;0.40;;;;;;;;;;4962863;28;20215;-72
2023/04/24 19:40:27;;;;;;;0.43;0.43;;;;;;;;;;4968212;28;20208;-72
2023/04/24 19:42:54;;;;;;;0.63;0.43;;;;;;;;;;4958080;28;20210;-72
2023/04/24 19:45:22;;;;;;;0.30;0.30;;;;;;;;;;4959819;28;20232;-72
2023/04/24 19:47:48;;;;;;;0.43;0.43;;;;;;;;;;4964084;28;20235;-72
2023/04/24 19:50:15;;;;;;;0.43;0.30;;;;;;;;;;4966714;28;20252;-72
2023/04/24 19:52:41;;;;;;;1.30;0.43;;;;;;;;;;4947138;28;20286;-72
2023/04/24 19:55:09;;;;;;;0.77;0.40;;;;;;;;;;4966530;28;20308;-72
2023/04/24 19:57:35;;;;;;;0.63;0.30;;;;;;;;;;4962659;28;20205;-72
2023/04/24 20:00:03;;;;;;;0.40;0.40;;;;;;;;;;4951844;28;20208;-72
2023/04/24 20:02:32;;;;;;;0.30;0.30;;;;;;;;;;4956987;28;20215;-72
2023/04/24 20:04:59;;;;;;;0.73;0.60;;;;;;;;;;4957317;28;20221;-72
2023/04/24 20:07:26;;;;;;;0.50;0.47;;;;;;;;;;4948132;28;20213;-72
2023/04/24 20:09:52;;;;;;;0.27;0.27;;;;;;;;;;4958161;28;20221;-72
2023/04/24 20:12:19;;;;;;;0.40;0.40;;;;;;;;;;4959255;28;20997;-71
2023/04/24 20:14:46;;;;;;;0.40;0.40;;;;;;;;;;4951013;28;20695;-71
2023/04/24 20:17:12;;;;;;;0.67;0.57;;;;;;;;;;4956271;28;20668;-72
2023/04/24 20:19:40;;;;;;;0.33;0.33;;;;;;;;;;4954251;28;20202;-72
2023/04/24 20:22:07;;;;;;;1.03;0.60;;;;;;;;;;4955746;28;20642;-72
2023/04/24 20:24:33;;;;;;;0.50;0.50;;;;;;;;;;4957721;28;20562;-72
2023/04/24 20:27:00;;;;;;;0.60;0.60;;;;;;;;;;4954100;28;20395;-72
2023/04/24 20:29:26;;;;;;;1.27;0.70;;;;;;;;;;4960965;28;20280;-72
2023/04/24 20:31:52;;;;;;;0.73;0.60;;;;;;;;;;4953687;28;20658;-72
2023/04/24 20:34:18;;;;;;;0.50;0.50;;;;;;;;;;4954270;28;20228;-71
2023/04/24 20:36:46;;;;;;;1.53;0.63;;;;;;;;;;4950167;28;20219;-71
2023/04/24 20:39:13;;;;;;;0.50;0.50;;;;;;;;;;4977817;28;20223;-71
2023/04/24 20:41:39;;;;;;;0.50;0.50;;;;;;;;;;4978509;28;20199;-71
2023/04/24 20:44:06;;;;;;;0.60;0.60;;;;;;;;;;4973611;28;20658;-72
2023/04/24 20:46:32;;;;;;;0.70;0.70;;;;;;;;;;4977921;28;20197;-72
2023/04/24 20:48:58;;;;;;;0.60;0.57;;;;;;;;;;4980360;28;20214;-72
2023/04/24 20:51:25;;;;;;;1.80;0.70;;;;;;;;;;4983537;28;20214;-72
2023/04/24 20:53:52;;;;;;;0.83;0.60;;;;;;;;;;4982639;28;20221;-71
2023/04/24 20:56:20;;;;;;;0.60;0.60;;;;;;;;;;4981684;28;20633;-71
2023/04/24 20:58:47;;;;;;;0.60;0.60;;;;;;;;;;4981698;28;20207;-71
2023/04/24 21:01:13;;;;;;;0.70;0.70;;;;;;;;;;4984045;28;20212;-72
2023/04/24 21:03:39;;;;;;;0.50;0.50;;;;;;;;;;4975512;28;20216;-72
2023/04/24 21:06:05;;;;;;;0.50;0.50;;;;;;;;;;4959973;28;20565;-71
2023/04/24 21:08:32;;;;;;;1.17;0.73;;;;;;;;;;4986754;28;20224;-71
2023/04/24 21:10:59;;;;;;;0.67;0.67;;;;;;;;;;4977734;28;20259;-71
2023/04/24 21:13:26;;;;;;;0.50;0.50;;;;;;;;;;4960808;28;20964;-72
2023/04/24 21:15:52;;;;;;;0.70;0.70;;;;;;;;;;4979364;28;20229;-72
2023/04/24 21:18:18;;;;;;;0.80;0.80;;;;;;;;;;4979448;28;21961;-72
2023/04/24 21:20:45;;;;;;;1.67;0.70;;;;;;;;;;4985295;28;20198;-72
2023/04/24 21:23:11;;;;;;;0.80;0.80;;;;;;;;;;4981853;28;20207;-71
2023/04/24 21:25:38;;;;;;;0.60;0.60;;;;;;;;;;4982124;28;20327;-72
2023/04/24 21:28:06;;;;;;;0.67;0.67;;;;;;;;;;4982228;28;20573;-72
2023/04/24 21:30:32;;;;;;;0.83;0.70;;;;;;;;;;4979832;28;20229;-72
2023/04/24 21:32:58;;;;;;;0.70;0.70;;;;;;;;;;4982796;28;20214;-72
2023/04/24 21:35:24;;;;;;;0.70;0.70;;;;;;;;;;4987875;28;20235;-72
2023/04/24 21:37:51;;;;;;;0.80;0.80;;;;;;;;;;4982193;28;20214;-72
2023/04/24 21:40:17;;;;;;;0.60;0.60;;;;;;;;;;4980091;28;20197;-72
2023/04/24 21:42:44;;;;;;;0.97;0.97;;;;;;;;;;4979905;28;20202;-72
2023/04/24 21:45:11;;;;;;;1.37;0.80;;;;;;;;;;4980214;28;20225;-72
2023/04/24 21:47:38;;;;;;;1.23;0.70;;;;;;;;;;4976956;28;20295;-72
2023/04/24 21:50:05;;;;;;;1.33;0.80;;;;;;;;;;4976299;28;20221;-72
2023/04/24 21:52:31;;;;;;;0.87;0.80;;;;;;;;;;4974620;28;20568;-72
2023/04/24 21:54:57;;;;;;;0.80;0.80;;;;;;;;;;4980126;28;20273;-72
2023/04/24 21:57:24;;;;;;;0.90;0.90;;;;;;;;;;4985647;28;20800;-72
2023/04/24 21:59:51;;;;;;;1.17;0.80;;;;;;;;;;4989199;28;20309;-72
2023/04/24 22:02:19;;;;;;;0.93;0.93;;;;;;;;;;4987599;28;20299;-72
2023/04/24 22:04:45;;;;;;;0.90;0.90;;;;;;;;;;4985711;28;20315;-72
2023/04/24 22:07:11;;;;;;;0.93;0.93;;;;;;;;;;4981456;28;20301;-72
2023/04/24 22:09:38;;;;;;;0.90;0.90;;;;;;;;;;4989763;28;20213;-72
2023/04/24 22:12:04;;;;;;;1.17;1.00;;;;;;;;;;4986929;28;20232;-71
2023/04/24 22:14:31;;;;;;;1.13;1.03;;;;;;;;;;4985288;28;20237;-72
2023/04/24 22:16:57;;;;;;;1.40;1.10;;;;;;;;;;4986106;28;20213;-72
2023/04/24 22:19:27;;;;;;;0.80;0.80;;;;;;;;;;4987496;28;20201;-72
2023/04/24 22:21:53;;;;;;;1.00;0.90;;;;;;;;;;4980524;28;20213;-72
2023/04/24 22:24:19;;;;;;;1.20;1.10;;;;;;;;;;4983687;28;20310;-72
2023/04/24 22:26:46;;;;;;;3.80;1.20;;;;;;;;;;4985851;28;20205;-71
2023/04/24 22:29:12;;;;;;;0.90;0.80;;;;;;;;;;4982320;28;20201;-72
2023/04/24 22:31:39;;;;;;;1.40;1.07;;;;;;;;;;4989474;28;20228;-72
2023/04/24 22:34:05;;;;;;;1.23;1.13;;;;;;;;;;4986072;28;20590;-72
2023/04/24 22:36:33;;;;;;;1.23;0.97;;;;;;;;;;4985629;28;20487;-72
2023/04/24 22:39:01;;;;;;;0.90;0.90;;;;;;;;;;4985382;28;20297;-71
2023/04/24 22:41:27;;;;;;;0.90;0.90;;;;;;;;;;4989799;28;20201;-72
2023/04/24 22:43:54;;;;;;;4.10;1.20;;;;;;;;;;4982744;28;20572;-72
2023/04/24 22:46:21;;;;;;;1.03;0.90;;;;;;;;;;4980976;28;20212;-72
2023/04/24 22:48:48;;;;;;;1.33;0.90;;;;;;;;;;4984941;28;20278;-72
2023/04/24 22:51:15;;;;;;;1.10;0.90;;;;;;;;;;4983081;28;20214;-72
2023/04/24 22:53:41;;;;;;;1.40;1.10;;;;;;;;;;4982897;28;20213;-72
2023/04/24 22:56:09;;;;;;;1.00;1.00;;;;;;;;;;4979203;28;20213;-72
2023/04/24 22:58:35;;;;;;;2.10;0.93;;;;;;;;;;4983184;28;20205;-72
2023/04/24 23:01:02;;;;;;;1.90;1.00;;;;;;;;;;4982738;28;20720;-72
2023/04/24 23:03:30;;;;;;;1.83;1.00;;;;;;;;;;4981380;28;20212;-72
2023/04/24 23:05:56;;;;;;;1.10;1.00;;;;;;;;;;4983805;28;20386;-72
2023/04/24 23:08:22;;;;;;;1.30;1.20;;;;;;;;;;4983694;28;20675;-72
2023/04/24 23:10:49;;;;;;;1.97;0.97;;;;;;;;;;4978937;28;20252;-71
2023/04/24 23:13:17;;;;;;;1.20;1.10;;;;;;;;;;4981266;28;20284;-72
2023/04/24 23:15:43;;;;;;;1.10;1.00;;;;;;;;;;4982040;28;20233;-71
2023/04/24 23:18:10;;;;;;;1.70;1.20;;;;;;;;;;4985002;28;20496;-72
2023/04/24 23:20:37;;;;;;;1.63;1.10;;;;;;;;;;4982441;28;20209;-72
2023/04/24 23:23:04;;;;;;;2.13;1.43;;;;;;;;;;4981586;28;20232;-72
2023/04/24 23:25:31;;;;;;;1.60;1.50;;;;;;;;;;4985014;28;20221;-71
2023/04/24 23:27:57;;;;;;;1.33;1.20;;;;;;;;;;4980992;28;20328;-72
2023/04/24 23:30:25;;;;;;;1.30;1.20;;;;;;;;;;4988336;28;20559;-72
2023/04/24 23:32:52;;;;;;;3.13;2.00;;;;;;;;;;4967837;28;20216;-72
2023/04/24 23:35:18;;;;;;;2.00;1.57;;;;;;;;;;4980628;28;20236;-72
2023/04/24 23:37:44;;;;;;;3.03;1.77;;;;;;;;;;4983189;28;20201;-71
2023/04/24 23:40:11;;;;;;;2.60;2.00;;;;;;;;;;4982295;28;20205;-72
2023/04/24 23:42:37;;;;;;;2.57;1.83;;;;;;;;;;4982383;28;20205;-71
2023/04/24 23:45:04;;;;;;;2.13;1.90;;;;;;;;;;4986899;28;20741;-71
2023/04/24 23:47:32;;;;;;;2.30;1.87;;;;;;;;;;4986457;28;20570;-71
2023/04/24 23:49:58;;;;;;;2.33;2.10;;;;;;;;;;4980639;28;20217;-72
2023/04/24 23:52:24;;;;;;;3.03;2.17;;;;;;;;;;4981628;28;20584;-72
2023/04/24 23:54:51;;;;;;;2.07;1.87;;;;;;;;;;4981113;28;20241;-72
2023/04/24 23:57:17;;;;;;;2.63;2.30;;;;;;;;;;4981772;28;20566;-72
2023/04/24 23:59:43;;;;;;;3.50;2.53;;;;;;;;;;4984845;28;20204;-72
